Flight Track Log - Related Links

Times and Time Zones

All times are in EDT time to prevent confusion due to time zone crossing. See the KAP927 flight status page for this flight to view local times or setup timezone preferences in your user account.


Time Position Orientation Groundspeed Altitude Reporting Facility
EDT Latitude Longitude Course Direction KTS MPH feet Rate Location/Type
Wed 02:26:08 PM 42.7272 -73.8419 255° West 139 160 1,700  Level Boston Center
Wed 02:27:09 PM 42.7622 -73.8767 324° Northwest 177 204 2,400 694 Climbing Boston Center
Wed 02:28:09 PM 42.8056 -73.9089 331° Northwest 177 204 3,100 661 Climbing Boston Center
Wed 02:29:16 PM 42.8447 -73.9408 329° Northwest 153 176 3,800 609 Climbing Boston Center
Wed 02:30:17 PM 42.8800 -73.9672 331° Northwest 148 170 4,400 606 Climbing Boston Center
Wed 02:31:05 PM 42.9108 -73.9936 328° Northwest 145 167 4,900 606 Climbing Boston Center
Wed 02:32:06 PM 42.9439 -74.0228 327° Northwest 143 165 5,500 614 Climbing Boston Center
Wed 02:33:12 PM 42.9831 -74.0522 331° Northwest 145 167 6,200 586 Climbing Boston Center
Wed 02:34:19 PM 43.0222 -74.0817 331° Northwest 141 162 6,800 541 Climbing Boston Center
Wed 02:35:14 PM 43.0511 -74.1050 329° Northwest 140 161 7,300 522 Climbing Boston Center
Wed 02:36:14 PM 43.0858 -74.1372 326° Northwest 142 163 7,800 480 Climbing Boston Center
Wed 02:37:44 PM 43.1272 -74.1642 335° Northwest 152 175 8,500 520 Climbing Boston Center
Wed 02:38:44 PM 43.1642 -74.1964 328° Northwest 138 159 9,100 600 Climbing Boston Center
Wed 02:39:44 PM 43.1972 -74.2231 330° Northwest 132 152 9,700 450 Climbing Boston Center
Wed 02:40:44 PM 43.2239 -74.2494 324° Northwest 127 146 10,000 150 Climbing Boston Center
Wed 02:41:44 PM 43.2608 -74.2819 327° Northwest 127 146 10,000  Level Boston Center
Wed 02:42:44 PM 43.2917 -74.3056 331° Northwest 139 160 10,000  Level Boston Center
Wed 02:43:44 PM 43.3328 -74.3383 330° Northwest 144 166 10,000  Level Boston Center
Wed 02:44:44 PM 43.3678 -74.3681 328° Northwest 144 166 10,000 -50 Level Boston Center
Wed 02:45:44 PM 43.4008 -74.3919 332° Northwest 144 166 9,900 -50 Descending Boston Center
Wed 02:46:44 PM 43.4358 -74.4186 331° Northwest 144 166 9,900  Level Boston Center
Wed 02:47:44 PM 43.4686 -74.4483 327° Northwest 138 159 9,900  Level Boston Center
Wed 02:48:44 PM 43.5036 -74.4753 331° Northwest 138 159 9,900  Level Boston Center
Wed 02:49:44 PM 43.5406 -74.5081 327° Northwest 138 159 9,900  Level Boston Center
Wed 02:50:44 PM 43.5733 -74.5350 329° Northwest 138 159 9,900  Level Boston Center
Wed 02:51:44 PM 43.6081 -74.5647 328° Northwest 138 159 9,900  Level Boston Center
Wed 02:52:44 PM 43.6431 -74.5892 333° Northwest 138 159 9,900  Level Boston Center
Wed 02:53:44 PM 43.6803 -74.6133 335° Northwest 138 159 9,900  Level Boston Center
Wed 02:54:44 PM 43.7131 -74.6433 327° Northwest 143 165 9,900 50 Level Boston Center
Wed 02:55:44 PM 43.7458 -74.6733 327° Northwest 143 165 10,000 100 Climbing Boston Center
Wed 02:56:44 PM 43.7850 -74.6919 341° North 143 165 10,100 50 Climbing Boston Center
Wed 02:57:44 PM 43.8178 -74.7192 329° Northwest 143 165 10,100 -200 Level Boston Center
Wed 02:58:44 PM 43.8633 -74.7322 348° North 143 165 9,700 -450 Descending Boston Center
Wed 02:59:44 PM 43.9025 -74.7539 338° Northwest 149 171 9,200 -600 Descending Boston Center
Wed 03:00:44 PM 43.9458 -74.7786 338° Northwest 155 178 8,500 -650 Descending Boston Center
Wed 03:01:44 PM 43.9933 -74.8036 339° North 161 185 7,900 -550 Descending Boston Center
Wed 03:02:44 PM 44.0406 -74.8314 337° Northwest 172 198 7,400 -450 Descending Boston Center
Wed 03:03:44 PM 44.0881 -74.8508 344° North 172 198 7,000 -250 Descending Boston Center
Wed 03:04:44 PM 44.1336 -74.8728 341° North 172 198 6,900 -50 Descending Boston Center
Wed 03:05:44 PM 44.1728 -74.8889 344° North 172 198 6,900 -350 Level Boston Center
Wed 03:06:44 PM 44.2325 -74.9144 343° North 172 198 6,200 -550 Descending Boston Center
Wed 03:07:44 PM 44.2717 -74.9394 335° Northwest 182 209 5,800 -450 Descending Boston Center
Wed 03:08:44 PM 44.3272 -74.9678 340° North 187 215 5,300 -400 Descending Boston Center
Wed 03:09:44 PM 44.3725 -74.9958 336° Northwest 182 209 5,000 -150 Descending Boston Center
Wed 03:10:44 PM 44.4178 -75.0183 340° North 176 203 5,000 -50 Level Boston Center
Wed 03:11:44 PM 44.4614 -75.0347 345° North 166 191 4,900 -50 Descending Boston Center
Wed 03:12:44 PM 44.5022 -75.0628 334° Northwest 166 191 4,900 -350 Level Boston Center
Wed 03:13:44 PM 44.5350 -75.0961 324° Northwest 159 183 4,200 -636 Descending Boston Center
Wed 03:14:56 PM 44.5525 -75.1522 294° West 153 176 3,500 -583 Descending Boston Center

Login

Don't have an account? Register now (free) for customized features, flight alerts, and more!